Time;durP1;ratioP1;P1;durP2;ratioP2;P2;SDS_P1;SDS_P2;PMS_P1;PMS_P2;Temp;Humidity;BMP_temperature;BMP_pressure;BME280_temperature;BME280_humidity;BME280_pressure;Samples;Min_cycle;Max_cycle;Signal;HPM_P1;HPM_P2
2022/03/02 00:01:43;;;;;;;41.15;25.83;;;;;;;;;;5011777;28;93217;-60
2022/03/02 00:04:09;;;;;;;40.72;25.80;;;;;;;;;;5018784;28;93172;-59
2022/03/02 00:06:36;;;;;;;42.70;24.90;;;;;;;;;;5011608;28;92757;-59
2022/03/02 00:09:02;;;;;;;43.88;25.73;;;;;;;;;;5011367;28;93957;-59
2022/03/02 00:11:28;;;;;;;48.38;26.25;;;;;;;;;;5013244;28;96164;-60
2022/03/02 00:13:55;;;;;;;42.42;25.77;;;;;;;;;;5011382;28;92951;-60
2022/03/02 00:16:22;;;;;;;37.38;25.02;;;;;;;;;;5010329;28;93183;-60
2022/03/02 00:18:49;;;;;;;42.35;24.80;;;;;;;;;;5010519;28;93317;-59
2022/03/02 00:21:16;;;;;;;41.63;25.05;;;;;;;;;;5011387;28;92478;-59
2022/03/02 00:23:42;;;;;;;38.90;24.85;;;;;;;;;;5011382;28;93341;-60
2022/03/02 00:26:08;;;;;;;42.38;25.65;;;;;;;;;;5013902;28;93406;-60
2022/03/02 00:28:35;;;;;;;40.83;25.38;;;;;;;;;;5011642;28;92408;-59
2022/03/02 00:31:01;;;;;;;41.50;25.88;;;;;;;;;;5012239;28;93417;-59
2022/03/02 00:33:27;;;;;;;45.63;24.95;;;;;;;;;;5010862;28;92575;-59
2022/03/02 00:35:54;;;;;;;40.35;24.92;;;;;;;;;;5029604;27;94739;-60
2022/03/02 00:38:20;;;;;;;44.13;26.35;;;;;;;;;;5011735;27;93247;-59
2022/03/02 00:40:46;;;;;;;41.60;24.60;;;;;;;;;;5011278;28;92837;-60
2022/03/02 00:43:12;;;;;;;42.70;25.50;;;;;;;;;;5011280;28;93227;-59
2022/03/02 00:45:39;;;;;;;38.47;24.33;;;;;;;;;;5015182;28;93669;-60
2022/03/02 00:48:06;;;;;;;37.47;24.42;;;;;;;;;;5014873;28;92493;-59
2022/03/02 00:50:32;;;;;;;42.22;25.63;;;;;;;;;;5012024;28;93345;-59
2022/03/02 00:52:59;;;;;;;36.13;24.00;;;;;;;;;;5011182;28;91700;-59
2022/03/02 00:55:25;;;;;;;41.47;24.67;;;;;;;;;;5018383;28;93448;-59
2022/03/02 00:57:52;;;;;;;37.38;24.60;;;;;;;;;;5019650;28;93703;-60
2022/03/02 01:00:18;;;;;;;44.10;23.90;;;;;;;;;;5010227;28;94861;-59
2022/03/02 01:02:46;;;;;;;36.67;22.75;;;;;;;;;;5018096;28;95841;-59
2022/03/02 01:05:12;;;;;;;38.58;23.83;;;;;;;;;;5013598;27;93719;-60
2022/03/02 01:07:38;;;;;;;41.58;23.75;;;;;;;;;;5016481;28;92872;-60
2022/03/02 01:10:05;;;;;;;39.67;23.83;;;;;;;;;;5011140;28;94440;-59
2022/03/02 01:12:32;;;;;;;42.72;23.48;;;;;;;;;;5023665;28;92496;-60
2022/03/02 01:14:58;;;;;;;41.38;24.30;;;;;;;;;;5018561;28;94255;-60
2022/03/02 01:17:25;;;;;;;36.10;22.15;;;;;;;;;;5004212;28;92472;-60
2022/03/02 01:19:51;;;;;;;38.25;23.17;;;;;;;;;;5013935;28;92570;-59
2022/03/02 01:22:18;;;;;;;40.53;23.65;;;;;;;;;;5015097;28;93183;-59
2022/03/02 01:24:45;;;;;;;42.67;23.90;;;;;;;;;;5017758;28;95795;-59
2022/03/02 01:27:11;;;;;;;37.30;24.58;;;;;;;;;;5023379;28;92527;-59
2022/03/02 01:29:38;;;;;;;39.22;23.17;;;;;;;;;;5001734;28;94413;-59
2022/03/02 01:32:06;;;;;;;43.90;23.75;;;;;;;;;;5011802;28;92487;-59
2022/03/02 01:34:32;;;;;;;37.97;23.15;;;;;;;;;;5013799;28;93241;-59
2022/03/02 01:36:59;;;;;;;46.03;21.98;;;;;;;;;;5013052;28;93432;-60
2022/03/02 01:39:25;;;;;;;34.65;22.45;;;;;;;;;;5021771;28;92381;-60
2022/03/02 01:41:52;;;;;;;36.85;22.60;;;;;;;;;;5019877;27;93339;-61
2022/03/02 01:44:18;;;;;;;39.20;22.45;;;;;;;;;;5014704;28;93820;-60
2022/03/02 01:46:44;;;;;;;37.55;23.38;;;;;;;;;;5015098;28;92452;-59
2022/03/02 01:49:11;;;;;;;37.85;22.40;;;;;;;;;;5011008;28;94935;-59
2022/03/02 01:51:38;;;;;;;35.40;23.02;;;;;;;;;;5016819;28;94207;-59
2022/03/02 01:54:05;;;;;;;41.33;23.08;;;;;;;;;;5017219;28;93216;-59
2022/03/02 01:56:32;;;;;;;40.28;23.67;;;;;;;;;;5011288;28;93384;-60
2022/03/02 01:58:58;;;;;;;34.53;21.02;;;;;;;;;;5019429;28;92526;-59
2022/03/02 02:01:25;;;;;;;32.55;20.85;;;;;;;;;;5017564;28;93306;-59
2022/03/02 02:03:51;;;;;;;35.20;21.95;;;;;;;;;;5005881;28;93398;-59
2022/03/02 02:06:18;;;;;;;39.97;22.80;;;;;;;;;;5013998;28;91634;-59
2022/03/02 02:08:44;;;;;;;40.63;22.58;;;;;;;;;;5021758;28;92460;-60
2022/03/02 02:11:12;;;;;;;33.22;22.20;;;;;;;;;;5012737;28;94510;-59
2022/03/02 02:13:38;;;;;;;36.97;23.55;;;;;;;;;;5019243;28;94913;-60
2022/03/02 02:16:05;;;;;;;38.80;23.17;;;;;;;;;;5013132;28;94577;-59
2022/03/02 02:18:32;;;;;;;38.80;23.98;;;;;;;;;;5014204;28;92482;-59
2022/03/02 02:21:00;;;;;;;38.05;23.70;;;;;;;;;;5012619;28;94311;-60
2022/03/02 02:23:26;;;;;;;34.35;22.25;;;;;;;;;;5023312;28;93250;-59
2022/03/02 02:25:52;;;;;;;36.08;22.83;;;;;;;;;;5012285;28;92538;-59
2022/03/02 02:28:22;;;;;;;37.33;21.15;;;;;;;;;;5023273;28;92985;-59
2022/03/02 02:30:50;;;;;;;38.78;24.02;;;;;;;;;;5015321;27;92769;-59
2022/03/02 02:33:16;;;;;;;34.75;22.40;;;;;;;;;;5016975;28;92504;-59
2022/03/02 02:35:43;;;;;;;36.85;22.65;;;;;;;;;;5031525;27;93104;-60
2022/03/02 02:38:10;;;;;;;42.08;24.88;;;;;;;;;;5026379;28;94867;-59
2022/03/02 02:40:36;;;;;;;38.97;24.92;;;;;;;;;;5014858;27;95822;-60
2022/03/02 02:43:05;;;;;;;39.88;24.77;;;;;;;;;;5013547;28;93666;-59
2022/03/02 02:45:31;;;;;;;39.20;24.20;;;;;;;;;;5013914;27;94144;-59
2022/03/02 02:47:58;;;;;;;44.33;23.73;;;;;;;;;;5021880;27;93291;-59
2022/03/02 02:50:26;;;;;;;37.05;23.83;;;;;;;;;;5013179;28;93662;-60
2022/03/02 02:52:53;;;;;;;40.83;24.42;;;;;;;;;;5026953;27;92463;-61
2022/03/02 02:55:20;;;;;;;41.10;23.60;;;;;;;;;;5024595;28;94259;-60
2022/03/02 02:57:47;;;;;;;38.88;23.27;;;;;;;;;;5012054;28;93016;-59
2022/03/02 03:00:15;;;;;;;38.28;23.50;;;;;;;;;;5020077;28;93218;-59
2022/03/02 03:02:42;;;;;;;37.97;23.15;;;;;;;;;;5010764;28;95905;-59
2022/03/02 03:05:11;;;;;;;37.63;23.70;;;;;;;;;;5012240;28;92547;-60
2022/03/02 03:07:38;;;;;;;39.33;23.70;;;;;;;;;;5017340;28;93483;-59
2022/03/02 03:10:05;;;;;;;39.55;24.42;;;;;;;;;;5031316;27;94273;-59
2022/03/02 03:12:32;;;;;;;37.95;23.77;;;;;;;;;;5013846;27;92551;-59
2022/03/02 03:14:58;;;;;;;42.88;23.38;;;;;;;;;;5011950;28;93466;-60
2022/03/02 03:17:25;;;;;;;38.13;24.25;;;;;;;;;;5012462;28;92962;-59
2022/03/02 03:19:51;;;;;;;38.92;23.80;;;;;;;;;;5011094;28;92755;-59
2022/03/02 03:22:17;;;;;;;40.60;24.05;;;;;;;;;;5012442;28;93363;-59
2022/03/02 03:24:43;;;;;;;35.47;22.52;;;;;;;;;;5015227;28;92647;-59
2022/03/02 03:27:10;;;;;;;36.22;22.20;;;;;;;;;;5010718;28;95135;-59
2022/03/02 03:29:37;;;;;;;39.42;22.65;;;;;;;;;;5013771;28;94572;-60
2022/03/02 03:32:04;;;;;;;41.65;24.08;;;;;;;;;;5014710;28;92445;-59
2022/03/02 03:34:30;;;;;;;39.83;25.02;;;;;;;;;;5010708;28;93047;-60
2022/03/02 03:36:57;;;;;;;41.97;25.20;;;;;;;;;;5009444;28;94352;-60
2022/03/02 03:39:24;;;;;;;38.40;23.73;;;;;;;;;;5014494;28;92539;-59
2022/03/02 03:41:50;;;;;;;39.50;24.33;;;;;;;;;;5016125;28;93403;-59
2022/03/02 03:44:16;;;;;;;38.67;24.23;;;;;;;;;;5028360;28;91713;-59
2022/03/02 03:46:42;;;;;;;40.30;24.65;;;;;;;;;;5014199;27;93872;-60
2022/03/02 03:49:09;;;;;;;39.75;23.58;;;;;;;;;;5011738;28;94319;-59
2022/03/02 03:51:36;;;;;;;43.85;23.23;;;;;;;;;;5010940;28;94880;-59
2022/03/02 03:54:02;;;;;;;39.15;22.98;;;;;;;;;;5021440;28;96725;-59
2022/03/02 03:56:30;;;;;;;41.72;22.60;;;;;;;;;;5019296;27;93148;-59
2022/03/02 03:58:58;;;;;;;41.65;24.55;;;;;;;;;;5019052;28;92466;-60
2022/03/02 04:01:25;;;;;;;38.63;23.35;;;;;;;;;;5017000;28;93002;-60
2022/03/02 04:03:52;;;;;;;40.50;22.65;;;;;;;;;;5011681;27;93110;-59
2022/03/02 04:06:18;;;;;;;37.88;22.80;;;;;;;;;;5011578;28;93177;-59
2022/03/02 04:08:45;;;;;;;38.95;23.65;;;;;;;;;;5011684;28;92754;-59
2022/03/02 04:11:11;;;;;;;44.38;24.42;;;;;;;;;;5012551;28;92485;-60
2022/03/02 04:13:38;;;;;;;39.10;24.20;;;;;;;;;;5014782;28;93295;-59
2022/03/02 04:16:04;;;;;;;38.50;22.67;;;;;;;;;;5009188;28;95680;-59
2022/03/02 04:18:31;;;;;;;45.15;23.55;;;;;;;;;;4997676;28;92458;-59
2022/03/02 04:20:58;;;;;;;37.22;23.70;;;;;;;;;;5015767;28;92723;-59
2022/03/02 04:23:25;;;;;;;41.22;24.88;;;;;;;;;;5014109;28;94080;-60
2022/03/02 04:25:56;;;;;;;40.80;24.67;;;;;;;;;;5010697;28;93201;-59
2022/03/02 04:28:22;;;;;;;43.17;24.52;;;;;;;;;;5011056;28;93886;-59
2022/03/02 04:30:48;;;;;;;35.78;23.30;;;;;;;;;;5015021;28;92437;-59
2022/03/02 04:33:15;;;;;;;43.10;24.25;;;;;;;;;;5011617;28;92873;-59
2022/03/02 04:35:41;;;;;;;46.35;25.92;;;;;;;;;;5011083;28;93465;-59
2022/03/02 04:38:10;;;;;;;41.80;25.08;;;;;;;;;;5011224;28;93063;-59
2022/03/02 04:40:36;;;;;;;42.03;23.95;;;;;;;;;;5014445;28;94936;-60
2022/03/02 04:43:02;;;;;;;42.70;25.08;;;;;;;;;;5010975;28;94241;-60
2022/03/02 04:45:29;;;;;;;37.35;24.33;;;;;;;;;;5016876;28;92444;-60
2022/03/02 04:47:56;;;;;;;37.47;24.08;;;;;;;;;;5016020;28;94756;-59
2022/03/02 04:50:22;;;;;;;42.35;23.80;;;;;;;;;;5023844;27;92505;-59
2022/03/02 04:52:49;;;;;;;39.10;24.40;;;;;;;;;;5016073;28;94288;-59
2022/03/02 04:55:16;;;;;;;39.75;23.63;;;;;;;;;;5014413;28;94116;-59
2022/03/02 04:57:47;;;;;;;37.55;23.83;;;;;;;;;;5014584;28;92865;-59
2022/03/02 05:00:16;;;;;;;39.17;22.85;;;;;;;;;;5013929;28;92523;-59
2022/03/02 05:02:42;;;;;;;38.42;23.85;;;;;;;;;;5017641;28;93632;-60
2022/03/02 05:05:10;;;;;;;39.50;24.10;;;;;;;;;;5017544;28;94969;-59
2022/03/02 05:07:36;;;;;;;43.80;22.95;;;;;;;;;;5014022;28;93661;-59
2022/03/02 05:10:03;;;;;;;39.38;23.35;;;;;;;;;;5022002;28;92444;-60
2022/03/02 05:12:29;;;;;;;37.25;22.77;;;;;;;;;;5014428;28;92431;-60
2022/03/02 05:14:56;;;;;;;34.78;22.02;;;;;;;;;;5021477;28;94440;-59
2022/03/02 05:17:23;;;;;;;45.25;22.58;;;;;;;;;;5014974;28;92461;-59
2022/03/02 05:19:49;;;;;;;37.05;22.50;;;;;;;;;;5013224;28;93234;-60
2022/03/02 05:22:16;;;;;;;38.00;21.92;;;;;;;;;;5021823;28;93173;-59
2022/03/02 05:24:42;;;;;;;39.90;22.80;;;;;;;;;;5026208;27;92503;-59
2022/03/02 05:27:08;;;;;;;36.72;23.25;;;;;;;;;;5017054;28;94289;-60
2022/03/02 05:29:36;;;;;;;37.63;21.70;;;;;;;;;;5014064;28;94894;-59
2022/03/02 05:32:03;;;;;;;37.45;22.98;;;;;;;;;;5013592;28;95355;-58
2022/03/02 05:34:29;;;;;;;39.28;23.33;;;;;;;;;;5013432;28;93398;-60
2022/03/02 05:36:55;;;;;;;36.80;22.42;;;;;;;;;;5021703;27;92622;-60
2022/03/02 05:39:23;;;;;;;40.92;22.98;;;;;;;;;;5019675;28;93550;-60
2022/03/02 05:41:52;;;;;;;47.58;22.83;;;;;;;;;;5013287;28;93281;-59
2022/03/02 05:44:18;;;;;;;39.33;22.98;;;;;;;;;;5014122;28;92542;-59
2022/03/02 05:46:45;;;;;;;40.78;22.60;;;;;;;;;;5014118;28;93189;-60
2022/03/02 05:49:13;;;;;;;36.33;22.42;;;;;;;;;;5015577;28;93402;-59
2022/03/02 05:51:39;;;;;;;43.08;22.33;;;;;;;;;;5015054;28;94277;-59
2022/03/02 05:54:08;;;;;;;37.17;23.08;;;;;;;;;;5013272;28;95954;-59
2022/03/02 05:56:37;;;;;;;41.60;23.17;;;;;;;;;;5016112;28;92481;-59
2022/03/02 05:59:04;;;;;;;38.47;22.58;;;;;;;;;;5014108;28;93445;-59
2022/03/02 06:01:31;;;;;;;39.30;23.67;;;;;;;;;;5014229;28;93958;-59
2022/03/02 06:03:58;;;;;;;39.92;22.73;;;;;;;;;;5012365;28;92737;-59
2022/03/02 06:06:37;;;;;;;38.08;23.20;;;;;;;;;;5013685;28;93151;-59
2022/03/02 06:09:05;;;;;;;38.40;23.55;;;;;;;;;;5025984;27;93536;-59
2022/03/02 06:11:31;;;;;;;41.10;22.77;;;;;;;;;;5028282;27;91763;-59
2022/03/02 06:13:57;;;;;;;42.72;23.80;;;;;;;;;;5031455;27;93087;-59
2022/03/02 06:16:24;;;;;;;46.10;23.80;;;;;;;;;;5021028;27;92454;-59
2022/03/02 06:18:51;;;;;;;36.97;22.90;;;;;;;;;;5013054;28;94868;-60
2022/03/02 06:21:40;;;;;;;38.08;21.85;;;;;;;;;;5016434;28;93238;-63
2022/03/02 06:24:06;;;;;;;37.85;22.33;;;;;;;;;;5032895;27;92384;-59
2022/03/02 06:26:33;;;;;;;42.30;24.17;;;;;;;;;;5019670;27;92631;-59
2022/03/02 06:28:59;;;;;;;44.40;24.48;;;;;;;;;;5015392;28;93733;-59
2022/03/02 06:31:25;;;;;;;45.22;23.65;;;;;;;;;;5013178;28;92444;-59
2022/03/02 06:33:52;;;;;;;37.35;22.95;;;;;;;;;;5015256;28;93150;-59
2022/03/02 06:36:20;;;;;;;45.08;25.15;;;;;;;;;;5016865;28;91722;-59
2022/03/02 06:38:46;;;;;;;44.15;23.58;;;;;;;;;;5031198;27;92362;-59
2022/03/02 06:41:41;;;;;;;37.85;23.30;;;;;;;;;;5011334;28;93978;-59
2022/03/02 06:44:07;;;;;;;62.28;24.23;;;;;;;;;;5013163;28;94927;-59
2022/03/02 06:46:42;;;;;;;40.83;23.17;;;;;;;;;;5012372;28;95758;-59
2022/03/02 06:49:28;;;;;;;50.03;23.88;;;;;;;;;;5011381;28;93799;-59
2022/03/02 06:51:57;;;;;;;44.08;24.75;;;;;;;;;;4978996;28;92741;-60
2022/03/02 06:54:27;;;;;;;47.97;23.48;;;;;;;;;;5011456;28;93040;-59
2022/03/02 06:56:55;;;;;;;38.13;24.05;;;;;;;;;;5014630;28;94575;-60
2022/03/02 06:59:42;;;;;;;48.75;23.60;;;;;;;;;;5009820;28;93145;-59
2022/03/02 07:02:09;;;;;;;34.70;22.73;;;;;;;;;;5010406;28;94042;-59
2022/03/02 07:04:39;;;;;;;41.33;24.50;;;;;;;;;;5011620;28;92430;-59
2022/03/02 07:07:06;;;;;;;40.90;24.10;;;;;;;;;;5011823;28;93183;-59
2022/03/02 07:09:33;;;;;;;42.38;24.52;;;;;;;;;;5010801;28;95818;-59
2022/03/02 07:12:00;;;;;;;42.97;23.85;;;;;;;;;;5011663;28;92496;-59
2022/03/02 07:14:30;;;;;;;40.90;24.05;;;;;;;;;;5012443;28;93025;-59
2022/03/02 07:17:00;;;;;;;54.87;24.03;;;;;;;;;;5012978;28;94462;-59
2022/03/02 07:19:27;;;;;;;37.30;22.88;;;;;;;;;;5012385;28;93192;-60
2022/03/02 07:21:54;;;;;;;40.25;23.15;;;;;;;;;;5012106;28;93236;-60
2022/03/02 07:24:22;;;;;;;36.17;22.50;;;;;;;;;;5012240;28;92429;-59
2022/03/02 07:26:53;;;;;;;46.53;23.73;;;;;;;;;;5012085;28;93240;-59
2022/03/02 07:29:20;;;;;;;40.05;22.65;;;;;;;;;;5012311;28;93425;-59
2022/03/02 07:31:47;;;;;;;37.05;22.25;;;;;;;;;;5011675;28;92769;-59
2022/03/02 07:34:19;;;;;;;42.92;22.23;;;;;;;;;;5010680;28;94823;-60
2022/03/02 07:36:45;;;;;;;38.53;23.63;;;;;;;;;;5011100;28;93752;-59
2022/03/02 07:39:13;;;;;;;45.13;24.13;;;;;;;;;;5015632;28;92957;-59
2022/03/02 07:41:39;;;;;;;44.90;23.60;;;;;;;;;;5011873;28;93628;-59
2022/03/02 07:44:06;;;;;;;44.95;25.15;;;;;;;;;;5008760;28;92430;-59
2022/03/02 07:46:33;;;;;;;50.70;24.55;;;;;;;;;;5009832;28;94699;-59
2022/03/02 07:48:59;;;;;;;48.55;24.95;;;;;;;;;;5011753;28;94271;-60
2022/03/02 07:51:26;;;;;;;48.67;24.92;;;;;;;;;;5009263;28;93589;-60
2022/03/02 07:53:55;;;;;;;48.42;26.60;;;;;;;;;;5007960;28;93724;-60
2022/03/02 07:56:22;;;;;;;53.40;27.23;;;;;;;;;;5006480;28;93374;-59
2022/03/02 07:58:49;;;;;;;55.95;28.05;;;;;;;;;;5009000;28;95046;-59
2022/03/02 08:01:18;;;;;;;48.55;26.50;;;;;;;;;;5013620;28;95114;-60
2022/03/02 08:03:44;;;;;;;53.05;27.02;;;;;;;;;;5011670;28;92461;-60
2022/03/02 08:06:11;;;;;;;45.63;26.00;;;;;;;;;;5011109;28;93332;-60
2022/03/02 08:08:38;;;;;;;51.28;27.33;;;;;;;;;;5011359;28;93288;-60
2022/03/02 08:11:05;;;;;;;42.90;26.67;;;;;;;;;;5011274;28;92395;-59
2022/03/02 08:13:32;;;;;;;46.92;26.92;;;;;;;;;;5003919;28;93229;-61
2022/03/02 08:15:59;;;;;;;61.10;28.88;;;;;;;;;;5008457;28;92589;-60
2022/03/02 08:18:26;;;;;;;55.67;27.80;;;;;;;;;;5026867;28;92617;-60
2022/03/02 08:20:57;;;;;;;53.38;26.90;;;;;;;;;;5015780;27;93380;-61
2022/03/02 08:23:27;;;;;;;49.40;26.98;;;;;;;;;;5015644;28;96930;-59
2022/03/02 08:25:53;;;;;;;46.63;26.50;;;;;;;;;;5021864;28;96713;-61
2022/03/02 08:28:24;;;;;;;52.92;27.30;;;;;;;;;;5014570;28;93554;-60
2022/03/02 08:30:51;;;;;;;42.75;26.30;;;;;;;;;;5014691;28;92689;-60
2022/03/02 08:33:25;;;;;;;45.15;25.95;;;;;;;;;;5014599;28;94485;-60
2022/03/02 08:35:51;;;;;;;43.28;25.95;;;;;;;;;;5019241;28;94037;-60
2022/03/02 08:38:18;;;;;;;56.55;26.02;;;;;;;;;;5033605;27;92492;-61
2022/03/02 08:40:44;;;;;;;46.90;25.52;;;;;;;;;;5035268;27;93271;-61
2022/03/02 08:43:12;;;;;;;47.63;24.55;;;;;;;;;;5033834;27;93606;-59
2022/03/02 08:45:39;;;;;;;49.45;25.55;;;;;;;;;;5031769;27;92572;-60
2022/03/02 08:48:09;;;;;;;40.72;23.40;;;;;;;;;;5012327;28;96653;-61
2022/03/02 08:50:35;;;;;;;55.00;26.33;;;;;;;;;;5014771;28;92420;-60
2022/03/02 08:53:01;;;;;;;46.92;25.42;;;;;;;;;;5012983;28;93240;-60
2022/03/02 08:55:29;;;;;;;46.97;25.27;;;;;;;;;;5032176;28;93478;-60
2022/03/02 08:57:57;;;;;;;41.88;24.25;;;;;;;;;;5033890;27;92409;-60
2022/03/02 09:00:23;;;;;;;49.63;25.67;;;;;;;;;;5034973;27;93420;-60
2022/03/02 09:02:51;;;;;;;48.80;24.52;;;;;;;;;;5034508;27;94451;-60
2022/03/02 09:05:18;;;;;;;43.85;24.08;;;;;;;;;;5035130;27;91674;-60
2022/03/02 09:07:45;;;;;;;38.55;24.27;;;;;;;;;;5037290;27;93026;-60
2022/03/02 09:10:11;;;;;;;41.75;24.63;;;;;;;;;;5034326;27;92437;-60
2022/03/02 09:12:44;;;;;;;45.70;24.35;;;;;;;;;;5032876;27;95980;-60
2022/03/02 09:15:10;;;;;;;47.78;24.05;;;;;;;;;;5031909;27;93425;-60
2022/03/02 09:17:37;;;;;;;39.85;24.08;;;;;;;;;;5014539;28;92883;-60
2022/03/02 09:20:03;;;;;;;38.33;23.05;;;;;;;;;;5013805;28;93247;-59
2022/03/02 09:22:30;;;;;;;38.97;23.35;;;;;;;;;;5014331;28;94591;-60
2022/03/02 09:24:56;;;;;;;41.83;23.67;;;;;;;;;;5013760;28;92781;-60
2022/03/02 09:27:27;;;;;;;43.15;22.85;;;;;;;;;;5016812;28;94422;-59
2022/03/02 09:29:53;;;;;;;;;;;;;;;;;;5014916;28;91649;-61
2022/03/02 09:32:22;;;;;;;41.17;22.02;;;;;;;;;;5014741;28;122796;-60
2022/03/02 09:34:51;;;;;;;39.35;22.08;;;;;;;;;;5013575;28;94452;-60
2022/03/02 09:37:18;;;;;;;36.63;21.30;;;;;;;;;;5012405;28;95170;-62
2022/03/02 09:39:48;;;;;;;46.90;23.13;;;;;;;;;;5013777;28;95507;-59
2022/03/02 09:42:19;;;;;;;38.88;22.77;;;;;;;;;;5013293;28;93239;-60
2022/03/02 09:44:46;;;;;;;37.38;21.65;;;;;;;;;;5013783;28;92553;-60
2022/03/02 09:47:17;;;;;;;38.28;21.98;;;;;;;;;;5012840;28;92885;-60
2022/03/02 09:49:54;;;;;;;37.53;21.55;;;;;;;;;;5016730;28;94594;-60
2022/03/02 09:52:21;;;;;;;32.88;21.98;;;;;;;;;;5013702;28;93411;-60
2022/03/02 09:54:51;;;;;;;35.78;20.98;;;;;;;;;;5012242;28;93649;-60
2022/03/02 09:57:18;;;;;;;40.78;22.15;;;;;;;;;;5012711;28;92731;-60
2022/03/02 09:59:48;;;;;;;34.45;20.40;;;;;;;;;;5012684;28;94350;-65
2022/03/02 10:02:20;;;;;;;35.95;22.13;;;;;;;;;;5010596;28;95844;-63
2022/03/02 10:04:51;;;;;;;29.83;20.25;;;;;;;;;;5001678;28;93125;-65
2022/03/02 10:07:27;;;;;;;37.00;21.13;;;;;;;;;;5012749;28;92366;-64
2022/03/02 10:10:01;;;;;;;30.40;20.98;;;;;;;;;;5010569;28;94231;-64
2022/03/02 10:12:29;;;;;;;30.05;19.83;;;;;;;;;;5016803;28;92415;-63
2022/03/02 10:14:56;;;;;;;26.63;18.95;;;;;;;;;;5013123;28;94441;-64
2022/03/02 10:17:26;;;;;;;28.77;18.92;;;;;;;;;;5013278;28;93342;-64
2022/03/02 10:19:54;;;;;;;24.92;19.13;;;;;;;;;;5012082;28;93577;-64
2022/03/02 10:22:47;;;;;;;24.00;17.05;;;;;;;;;;5012267;28;93800;-63
2022/03/02 10:25:14;;;;;;;27.85;18.27;;;;;;;;;;5011594;28;92456;-63
2022/03/02 10:27:59;;;;;;;26.55;17.42;;;;;;;;;;5010942;28;94839;-65
2022/03/02 10:30:30;;;;;;;22.20;16.80;;;;;;;;;;5013341;28;94565;-63
2022/03/02 10:33:00;;;;;;;24.02;16.98;;;;;;;;;;5011304;28;92538;-66
2022/03/02 10:35:28;;;;;;;22.92;16.95;;;;;;;;;;5015617;28;93015;-64
2022/03/02 10:38:02;;;;;;;25.08;16.17;;;;;;;;;;5012187;28;92579;-65
2022/03/02 10:40:31;;;;;;;21.67;14.82;;;;;;;;;;5012202;28;93111;-65
2022/03/02 10:43:00;;;;;;;19.90;15.77;;;;;;;;;;5011847;28;94264;-65
2022/03/02 10:45:28;;;;;;;20.38;14.95;;;;;;;;;;5013014;28;91754;-64
2022/03/02 10:48:12;;;;;;;21.92;14.68;;;;;;;;;;5011962;28;93581;-64
2022/03/02 10:50:39;;;;;;;21.50;14.50;;;;;;;;;;5012743;28;93600;-65
2022/03/02 10:53:11;;;;;;;18.17;14.82;;;;;;;;;;5009589;28;95018;-64
2022/03/02 10:55:39;;;;;;;21.98;14.85;;;;;;;;;;4996939;28;96799;-64
2022/03/02 10:58:05;;;;;;;22.75;13.77;;;;;;;;;;5014818;28;94524;-65
2022/03/02 11:00:32;;;;;;;20.50;13.20;;;;;;;;;;5012768;28;93408;-64
2022/03/02 11:02:59;;;;;;;15.52;12.70;;;;;;;;;;5011630;28;94621;-64
2022/03/02 11:05:28;;;;;;;15.00;12.57;;;;;;;;;;5011208;28;92568;-64
2022/03/02 11:07:55;;;;;;;14.65;11.77;;;;;;;;;;5011569;28;94280;-64
2022/03/02 11:10:23;;;;;;;14.18;11.55;;;;;;;;;;5012635;28;92844;-64
2022/03/02 11:12:49;;;;;;;17.48;11.63;;;;;;;;;;5010162;28;92989;-64
2022/03/02 11:15:18;;;;;;;15.55;11.15;;;;;;;;;;5012327;28;93779;-64
2022/03/02 11:17:55;;;;;;;16.17;11.07;;;;;;;;;;5010181;28;95901;-64
2022/03/02 11:20:22;;;;;;;15.05;11.60;;;;;;;;;;5015298;28;92468;-64
2022/03/02 11:23:07;;;;;;;13.30;11.10;;;;;;;;;;5011981;28;94319;-64
2022/03/02 11:25:40;;;;;;;16.05;11.52;;;;;;;;;;5012469;28;92582;-64
2022/03/02 11:28:07;;;;;;;14.43;10.60;;;;;;;;;;5012115;28;94267;-64
2022/03/02 11:30:34;;;;;;;15.35;10.98;;;;;;;;;;5011903;28;93118;-64
2022/03/02 11:33:06;;;;;;;13.95;11.13;;;;;;;;;;5010991;28;92547;-64
2022/03/02 11:35:36;;;;;;;14.77;10.20;;;;;;;;;;5012256;28;94247;-64
2022/03/02 11:38:04;;;;;;;15.32;10.23;;;;;;;;;;5004411;28;94633;-64
2022/03/02 11:40:42;;;;;;;14.80;9.93;;;;;;;;;;5014429;28;92514;-64
2022/03/02 11:43:13;;;;;;;11.55;9.90;;;;;;;;;;5009802;28;97384;-64
2022/03/02 11:45:39;;;;;;;21.63;9.82;;;;;;;;;;5012926;28;92486;-66
2022/03/02 11:48:15;;;;;;;12.52;9.70;;;;;;;;;;5012095;28;94268;-65
2022/03/02 11:51:00;;;;;;;11.85;9.07;;;;;;;;;;5012329;28;94452;-66
2022/03/02 11:53:35;;;;;;;10.48;8.38;;;;;;;;;;5007341;28;93762;-65
2022/03/02 11:56:02;;;;;;;9.25;8.10;;;;;;;;;;4995192;28;94414;-65
2022/03/02 11:58:48;;;;;;;12.98;8.07;;;;;;;;;;4992531;28;93168;-65
2022/03/02 12:01:39;;;;;;;13.15;8.45;;;;;;;;;;5008815;28;92017;-65
2022/03/02 12:04:25;;;;;;;9.35;8.15;;;;;;;;;;5015028;28;92929;-65
2022/03/02 12:06:52;;;;;;;11.63;8.60;;;;;;;;;;5010580;28;93909;-66
2022/03/02 12:09:26;;;;;;;9.45;8.07;;;;;;;;;;4990725;28;94869;-65
2022/03/02 12:12:04;;;;;;;8.95;8.05;;;;;;;;;;4995554;28;94577;-65
2022/03/02 12:14:37;;;;;;;10.40;8.35;;;;;;;;;;5011512;28;92538;-65
2022/03/02 12:17:11;;;;;;;12.18;7.93;;;;;;;;;;5009403;28;93184;-64
2022/03/02 12:19:37;;;;;;;11.55;8.00;;;;;;;;;;5012039;28;93303;-64
2022/03/02 12:22:10;;;;;;;10.18;7.70;;;;;;;;;;5011542;28;92590;-64
2022/03/02 12:24:37;;;;;;;9.82;8.02;;;;;;;;;;5011306;28;93261;-64
2022/03/02 12:27:05;;;;;;;15.48;7.65;;;;;;;;;;5013890;28;93926;-64
2022/03/02 12:29:33;;;;;;;8.82;7.68;;;;;;;;;;5010859;28;93582;-65
2022/03/02 12:32:05;;;;;;;12.38;8.23;;;;;;;;;;5010525;28;93243;-65
2022/03/02 12:34:35;;;;;;;10.18;9.05;;;;;;;;;;5010129;28;95115;-65
2022/03/02 12:37:03;;;;;;;12.73;8.65;;;;;;;;;;5011343;28;95587;-65
2022/03/02 12:39:30;;;;;;;10.18;8.40;;;;;;;;;;5012083;28;93511;-64
2022/03/02 12:41:57;;;;;;;11.25;8.88;;;;;;;;;;5010948;28;92520;-65
2022/03/02 12:44:25;;;;;;;10.18;8.60;;;;;;;;;;5010701;28;94311;-64
2022/03/02 12:46:52;;;;;;;11.15;9.43;;;;;;;;;;5012198;28;94551;-65
2022/03/02 12:49:25;;;;;;;14.93;8.40;;;;;;;;;;5014766;28;92488;-64
2022/03/02 12:51:55;;;;;;;8.57;7.72;;;;;;;;;;5009866;28;92551;-65
2022/03/02 12:54:22;;;;;;;9.75;7.18;;;;;;;;;;4992230;28;92491;-65
2022/03/02 12:56:49;;;;;;;8.88;7.97;;;;;;;;;;4991797;28;94166;-65
2022/03/02 12:59:16;;;;;;;18.20;9.43;;;;;;;;;;4990070;28;96718;-65
2022/03/02 13:01:46;;;;;;;11.05;8.95;;;;;;;;;;5006639;28;93446;-65
2022/03/02 13:04:15;;;;;;;8.98;8.02;;;;;;;;;;5011316;28;93189;-65
2022/03/02 13:06:48;;;;;;;13.52;9.05;;;;;;;;;;5013433;28;93600;-65
2022/03/02 13:09:16;;;;;;;13.38;8.63;;;;;;;;;;5014841;28;92435;-65
2022/03/02 13:11:42;;;;;;;10.38;8.40;;;;;;;;;;5017107;28;93712;-65
2022/03/02 13:14:27;;;;;;;9.95;8.32;;;;;;;;;;5014795;28;92459;-65
2022/03/02 13:16:53;;;;;;;10.43;8.45;;;;;;;;;;5011815;28;92650;-66
2022/03/02 13:19:26;;;;;;;11.65;7.82;;;;;;;;;;5014781;28;93454;-66
2022/03/02 13:22:02;;;;;;;8.80;7.57;;;;;;;;;;5014170;28;92739;-65
2022/03/02 13:24:28;;;;;;;10.30;8.27;;;;;;;;;;5013792;28;94911;-64
2022/03/02 13:26:57;;;;;;;10.80;8.63;;;;;;;;;;5014237;28;93839;-64
2022/03/02 13:29:28;;;;;;;11.10;8.23;;;;;;;;;;5014847;28;92553;-65
2022/03/02 13:31:57;;;;;;;12.07;8.50;;;;;;;;;;5016636;28;94273;-65
2022/03/02 13:34:24;;;;;;;14.40;8.45;;;;;;;;;;5013955;28;92617;-65
2022/03/02 13:36:52;;;;;;;8.98;7.72;;;;;;;;;;5014493;28;93201;-64
2022/03/02 13:39:31;;;;;;;9.00;8.10;;;;;;;;;;5013680;28;94488;-65
2022/03/02 13:42:02;;;;;;;9.40;8.40;;;;;;;;;;5014653;28;92047;-65
2022/03/02 13:44:39;;;;;;;12.27;8.93;;;;;;;;;;5015162;28;93563;-65
2022/03/02 13:47:10;;;;;;;11.43;8.90;;;;;;;;;;5014126;28;93423;-65
2022/03/02 13:49:50;;;;;;;11.35;9.25;;;;;;;;;;5012376;28;94888;-63
2022/03/02 13:52:17;;;;;;;11.20;9.05;;;;;;;;;;5014082;28;96060;-65
2022/03/02 13:54:43;;;;;;;10.23;8.35;;;;;;;;;;5016545;28;93781;-65
2022/03/02 13:57:20;;;;;;;12.55;8.88;;;;;;;;;;4997699;28;93395;-65
2022/03/02 13:59:47;;;;;;;10.25;8.70;;;;;;;;;;5010807;28;93531;-65
2022/03/02 14:02:13;;;;;;;12.75;9.18;;;;;;;;;;5012854;28;92536;-65
2022/03/02 14:04:46;;;;;;;14.50;9.93;;;;;;;;;;5012354;28;93692;-66
2022/03/02 14:07:15;;;;;;;11.80;9.20;;;;;;;;;;5014455;28;92629;-65
2022/03/02 14:09:41;;;;;;;11.65;9.68;;;;;;;;;;5013835;28;92624;-65
2022/03/02 14:12:08;;;;;;;15.60;10.55;;;;;;;;;;5013876;28;93312;-65
2022/03/02 14:14:35;;;;;;;12.00;9.93;;;;;;;;;;5012061;28;97060;-65
2022/03/02 14:17:09;;;;;;;13.38;10.63;;;;;;;;;;5014275;28;92505;-65
2022/03/02 14:19:42;;;;;;;15.73;9.48;;;;;;;;;;5011501;28;93586;-65
2022/03/02 14:22:11;;;;;;;14.88;10.38;;;;;;;;;;5012386;28;92500;-65
2022/03/02 14:24:40;;;;;;;16.88;11.63;;;;;;;;;;5011738;28;93933;-65
2022/03/02 14:27:15;;;;;;;12.57;10.30;;;;;;;;;;5012116;28;93619;-65
2022/03/02 14:29:54;;;;;;;14.95;10.65;;;;;;;;;;5012570;28;92563;-65